sensor_id;sensor_type;location;lat;lon;timestamp;P1;durP1;ratioP1;P2;durP2;ratioP2
5026;SDS011;2532;52.480;13.354;2022-09-09T00:03:35;9.53;;;8.33;;
5026;SDS011;2532;52.480;13.354;2022-09-09T00:06:08;8.63;;;7.73;;
5026;SDS011;2532;52.480;13.354;2022-09-09T00:08:44;9.77;;;7.40;;
5026;SDS011;2532;52.480;13.354;2022-09-09T00:11:21;8.00;;;7.20;;
5026;SDS011;2532;52.480;13.354;2022-09-09T00:13:54;9.47;;;7.90;;
5026;SDS011;2532;52.480;13.354;2022-09-09T00:16:25;8.50;;;7.60;;
5026;SDS011;2532;52.480;13.354;2022-09-09T00:19:00;7.90;;;7.03;;
5026;SDS011;2532;52.480;13.354;2022-09-09T00:21:31;8.33;;;7.43;;
5026;SDS011;2532;52.480;13.354;2022-09-09T00:24:00;10.40;;;8.60;;
5026;SDS011;2532;52.480;13.354;2022-09-09T00:26:35;9.10;;;8.20;;
5026;SDS011;2532;52.480;13.354;2022-09-09T00:29:09;10.87;;;8.20;;
5026;SDS011;2532;52.480;13.354;2022-09-09T00:31:40;9.50;;;8.40;;
5026;SDS011;2532;52.480;13.354;2022-09-09T00:34:12;9.63;;;8.20;;
5026;SDS011;2532;52.480;13.354;2022-09-09T00:36:41;11.60;;;9.27;;
5026;SDS011;2532;52.480;13.354;2022-09-09T00:39:09;10.27;;;9.17;;
5026;SDS011;2532;52.480;13.354;2022-09-09T00:41:48;9.50;;;8.60;;
5026;SDS011;2532;52.480;13.354;2022-09-09T00:44:34;12.53;;;8.73;;
5026;SDS011;2532;52.480;13.354;2022-09-09T00:47:12;10.23;;;9.13;;
5026;SDS011;2532;52.480;13.354;2022-09-09T00:49:52;11.50;;;8.70;;
5026;SDS011;2532;52.480;13.354;2022-09-09T00:52:29;9.83;;;8.60;;
5026;SDS011;2532;52.480;13.354;2022-09-09T00:55:03;8.60;;;7.80;;
5026;SDS011;2532;52.480;13.354;2022-09-09T00:57:34;10.17;;;9.10;;
5026;SDS011;2532;52.480;13.354;2022-09-09T01:03:02;9.63;;;8.00;;
5026;SDS011;2532;52.480;13.354;2022-09-09T01:05:51;9.63;;;8.10;;
5026;SDS011;2532;52.480;13.354;2022-09-09T01:08:40;9.50;;;8.60;;
5026;SDS011;2532;52.480;13.354;2022-09-09T01:11:20;9.20;;;8.00;;
5026;SDS011;2532;52.480;13.354;2022-09-09T01:13:50;10.10;;;8.77;;
5026;SDS011;2532;52.480;13.354;2022-09-09T01:16:24;9.37;;;8.17;;
5026;SDS011;2532;52.480;13.354;2022-09-09T01:18:53;13.27;;;8.60;;
5026;SDS011;2532;52.480;13.354;2022-09-09T01:21:25;10.80;;;8.70;;
5026;SDS011;2532;52.480;13.354;2022-09-09T01:24:09;9.10;;;8.20;;
5026;SDS011;2532;52.480;13.354;2022-09-09T01:26:46;11.13;;;8.77;;
5026;SDS011;2532;52.480;13.354;2022-09-09T01:29:16;8.63;;;7.73;;
5026;SDS011;2532;52.480;13.354;2022-09-09T01:31:52;8.97;;;8.07;;
5026;SDS011;2532;52.480;13.354;2022-09-09T01:34:21;11.83;;;9.03;;
5026;SDS011;2532;52.480;13.354;2022-09-09T01:36:50;9.13;;;8.20;;
5026;SDS011;2532;52.480;13.354;2022-09-09T01:39:23;9.23;;;8.23;;
5026;SDS011;2532;52.480;13.354;2022-09-09T01:41:52;8.80;;;7.90;;
5026;SDS011;2532;52.480;13.354;2022-09-09T01:44:21;10.30;;;8.10;;
5026;SDS011;2532;52.480;13.354;2022-09-09T01:46:48;9.53;;;8.40;;
5026;SDS011;2532;52.480;13.354;2022-09-09T01:49:15;8.87;;;7.97;;
5026;SDS011;2532;52.480;13.354;2022-09-09T01:51:42;11.40;;;8.03;;
5026;SDS011;2532;52.480;13.354;2022-09-09T01:54:12;9.00;;;7.60;;
5026;SDS011;2532;52.480;13.354;2022-09-09T01:56:40;9.13;;;8.20;;
5026;SDS011;2532;52.480;13.354;2022-09-09T01:59:24;10.60;;;7.80;;
5026;SDS011;2532;52.480;13.354;2022-09-09T02:02:03;7.93;;;7.13;;
5026;SDS011;2532;52.480;13.354;2022-09-09T02:04:38;8.37;;;7.47;;
5026;SDS011;2532;52.480;13.354;2022-09-09T02:07:09;9.10;;;8.10;;
5026;SDS011;2532;52.480;13.354;2022-09-09T02:09:46;8.67;;;7.60;;
5026;SDS011;2532;52.480;13.354;2022-09-09T02:12:18;8.43;;;7.60;;
5026;SDS011;2532;52.480;13.354;2022-09-09T02:14:49;9.10;;;7.87;;
5026;SDS011;2532;52.480;13.354;2022-09-09T02:17:21;9.43;;;7.80;;
5026;SDS011;2532;52.480;13.354;2022-09-09T02:19:52;7.90;;;6.93;;
5026;SDS011;2532;52.480;13.354;2022-09-09T02:22:23;8.90;;;7.50;;
5026;SDS011;2532;52.480;13.354;2022-09-09T02:24:53;9.57;;;7.60;;
5026;SDS011;2532;52.480;13.354;2022-09-09T02:27:24;12.23;;;8.30;;
5026;SDS011;2532;52.480;13.354;2022-09-09T02:29:53;8.30;;;7.33;;
5026;SDS011;2532;52.480;13.354;2022-09-09T02:32:23;9.23;;;8.03;;
5026;SDS011;2532;52.480;13.354;2022-09-09T02:34:51;9.73;;;7.70;;
5026;SDS011;2532;52.480;13.354;2022-09-09T02:37:22;10.40;;;8.23;;
5026;SDS011;2532;52.480;13.354;2022-09-09T02:39:54;10.33;;;7.10;;
5026;SDS011;2532;52.480;13.354;2022-09-09T02:42:21;8.90;;;7.37;;
5026;SDS011;2532;52.480;13.354;2022-09-09T02:44:49;8.90;;;7.50;;
5026;SDS011;2532;52.480;13.354;2022-09-09T02:47:28;9.63;;;8.50;;
5026;SDS011;2532;52.480;13.354;2022-09-09T02:50:11;9.40;;;8.10;;
5026;SDS011;2532;52.480;13.354;2022-09-09T02:55:35;8.30;;;7.40;;
5026;SDS011;2532;52.480;13.354;2022-09-09T02:58:05;9.13;;;8.10;;
5026;SDS011;2532;52.480;13.354;2022-09-09T03:00:36;8.60;;;7.50;;
5026;SDS011;2532;52.480;13.354;2022-09-09T03:03:05;11.67;;;7.67;;
5026;SDS011;2532;52.480;13.354;2022-09-09T03:05:33;9.00;;;7.50;;
5026;SDS011;2532;52.480;13.354;2022-09-09T03:08:00;10.13;;;7.17;;
5026;SDS011;2532;52.480;13.354;2022-09-09T03:10:28;8.40;;;7.03;;
5026;SDS011;2532;52.480;13.354;2022-09-09T03:12:55;11.40;;;8.13;;
5026;SDS011;2532;52.480;13.354;2022-09-09T03:15:22;11.37;;;7.80;;
5026;SDS011;2532;52.480;13.354;2022-09-09T03:17:49;10.00;;;8.27;;
5026;SDS011;2532;52.480;13.354;2022-09-09T03:20:17;10.23;;;7.47;;
5026;SDS011;2532;52.480;13.354;2022-09-09T03:22:44;8.83;;;7.60;;
5026;SDS011;2532;52.480;13.354;2022-09-09T03:25:11;10.97;;;8.80;;
5026;SDS011;2532;52.480;13.354;2022-09-09T03:27:37;11.03;;;7.80;;
5026;SDS011;2532;52.480;13.354;2022-09-09T03:30:05;10.77;;;8.10;;
5026;SDS011;2532;52.480;13.354;2022-09-09T03:32:32;11.30;;;8.53;;
5026;SDS011;2532;52.480;13.354;2022-09-09T03:34:59;8.60;;;7.70;;
5026;SDS011;2532;52.480;13.354;2022-09-09T03:37:27;8.00;;;7.20;;
5026;SDS011;2532;52.480;13.354;2022-09-09T03:39:54;11.77;;;7.77;;
5026;SDS011;2532;52.480;13.354;2022-09-09T03:42:21;13.00;;;7.47;;
5026;SDS011;2532;52.480;13.354;2022-09-09T03:44:48;8.30;;;7.23;;
5026;SDS011;2532;52.480;13.354;2022-09-09T03:47:16;9.07;;;7.90;;
5026;SDS011;2532;52.480;13.354;2022-09-09T03:49:44;8.10;;;7.00;;
5026;SDS011;2532;52.480;13.354;2022-09-09T03:52:11;9.20;;;8.20;;
5026;SDS011;2532;52.480;13.354;2022-09-09T03:54:40;9.00;;;7.97;;
5026;SDS011;2532;52.480;13.354;2022-09-09T03:57:07;8.43;;;7.53;;
5026;SDS011;2532;52.480;13.354;2022-09-09T03:59:34;7.97;;;7.17;;
5026;SDS011;2532;52.480;13.354;2022-09-09T04:02:01;11.00;;;7.60;;
5026;SDS011;2532;52.480;13.354;2022-09-09T04:04:29;7.47;;;6.73;;
5026;SDS011;2532;52.480;13.354;2022-09-09T04:06:56;8.60;;;6.90;;
5026;SDS011;2532;52.480;13.354;2022-09-09T04:09:22;7.40;;;6.50;;
5026;SDS011;2532;52.480;13.354;2022-09-09T04:11:51;9.10;;;6.80;;
5026;SDS011;2532;52.480;13.354;2022-09-09T04:14:18;10.10;;;7.33;;
5026;SDS011;2532;52.480;13.354;2022-09-09T04:16:44;9.03;;;7.20;;
5026;SDS011;2532;52.480;13.354;2022-09-09T04:19:12;8.50;;;6.90;;
5026;SDS011;2532;52.480;13.354;2022-09-09T04:21:39;9.87;;;7.63;;
5026;SDS011;2532;52.480;13.354;2022-09-09T04:24:06;8.50;;;7.57;;
5026;SDS011;2532;52.480;13.354;2022-09-09T04:26:34;9.50;;;7.07;;
5026;SDS011;2532;52.480;13.354;2022-09-09T04:29:03;8.20;;;7.40;;
5026;SDS011;2532;52.480;13.354;2022-09-09T04:31:33;9.97;;;7.57;;
5026;SDS011;2532;52.480;13.354;2022-09-09T04:33:59;11.20;;;7.20;;
5026;SDS011;2532;52.480;13.354;2022-09-09T04:36:30;13.30;;;8.10;;
5026;SDS011;2532;52.480;13.354;2022-09-09T04:38:57;10.53;;;8.03;;
5026;SDS011;2532;52.480;13.354;2022-09-09T04:41:24;11.60;;;7.90;;
5026;SDS011;2532;52.480;13.354;2022-09-09T04:43:52;10.60;;;7.23;;
5026;SDS011;2532;52.480;13.354;2022-09-09T04:46:21;8.73;;;7.67;;
5026;SDS011;2532;52.480;13.354;2022-09-09T04:48:48;7.93;;;7.00;;
5026;SDS011;2532;52.480;13.354;2022-09-09T04:51:16;9.47;;;7.87;;
5026;SDS011;2532;52.480;13.354;2022-09-09T04:53:42;9.80;;;7.43;;
5026;SDS011;2532;52.480;13.354;2022-09-09T04:56:11;10.93;;;8.73;;
5026;SDS011;2532;52.480;13.354;2022-09-09T04:58:39;12.50;;;7.63;;
5026;SDS011;2532;52.480;13.354;2022-09-09T05:01:08;8.00;;;7.20;;
5026;SDS011;2532;52.480;13.354;2022-09-09T05:03:38;11.20;;;7.70;;
5026;SDS011;2532;52.480;13.354;2022-09-09T05:06:05;9.43;;;7.87;;
5026;SDS011;2532;52.480;13.354;2022-09-09T05:08:34;8.53;;;6.43;;
5026;SDS011;2532;52.480;13.354;2022-09-09T05:11:01;8.10;;;7.00;;
5026;SDS011;2532;52.480;13.354;2022-09-09T05:13:28;9.00;;;7.50;;
5026;SDS011;2532;52.480;13.354;2022-09-09T05:15:57;10.20;;;7.40;;
5026;SDS011;2532;52.480;13.354;2022-09-09T05:18:24;7.70;;;6.90;;
5026;SDS011;2532;52.480;13.354;2022-09-09T05:20:52;9.60;;;7.50;;
5026;SDS011;2532;52.480;13.354;2022-09-09T05:23:24;9.60;;;7.07;;
5026;SDS011;2532;52.480;13.354;2022-09-09T05:25:57;9.30;;;8.10;;
5026;SDS011;2532;52.480;13.354;2022-09-09T05:28:24;10.40;;;7.80;;
5026;SDS011;2532;52.480;13.354;2022-09-09T05:30:55;9.97;;;7.30;;
5026;SDS011;2532;52.480;13.354;2022-09-09T05:33:23;9.00;;;6.90;;
5026;SDS011;2532;52.480;13.354;2022-09-09T05:35:56;10.33;;;7.03;;
5026;SDS011;2532;52.480;13.354;2022-09-09T05:38:23;8.67;;;6.60;;
5026;SDS011;2532;52.480;13.354;2022-09-09T05:40:51;10.90;;;6.50;;
5026;SDS011;2532;52.480;13.354;2022-09-09T05:43:18;8.57;;;7.43;;
5026;SDS011;2532;52.480;13.354;2022-09-09T05:45:45;16.60;;;9.00;;
5026;SDS011;2532;52.480;13.354;2022-09-09T05:48:12;14.03;;;9.20;;
5026;SDS011;2532;52.480;13.354;2022-09-09T05:50:40;9.63;;;7.73;;
5026;SDS011;2532;52.480;13.354;2022-09-09T05:53:09;12.27;;;7.67;;
5026;SDS011;2532;52.480;13.354;2022-09-09T05:55:35;11.60;;;8.20;;
5026;SDS011;2532;52.480;13.354;2022-09-09T05:58:03;8.57;;;6.90;;
5026;SDS011;2532;52.480;13.354;2022-09-09T06:00:29;10.73;;;7.00;;
5026;SDS011;2532;52.480;13.354;2022-09-09T06:02:57;9.73;;;7.67;;
5026;SDS011;2532;52.480;13.354;2022-09-09T06:05:23;13.73;;;7.93;;
5026;SDS011;2532;52.480;13.354;2022-09-09T06:07:52;12.73;;;7.30;;
5026;SDS011;2532;52.480;13.354;2022-09-09T06:10:20;13.03;;;8.43;;
5026;SDS011;2532;52.480;13.354;2022-09-09T06:12:47;8.20;;;6.70;;
5026;SDS011;2532;52.480;13.354;2022-09-09T06:15:14;9.90;;;6.70;;
5026;SDS011;2532;52.480;13.354;2022-09-09T06:17:42;13.50;;;8.23;;
5026;SDS011;2532;52.480;13.354;2022-09-09T06:20:10;10.33;;;7.30;;
5026;SDS011;2532;52.480;13.354;2022-09-09T06:22:39;12.80;;;7.90;;
5026;SDS011;2532;52.480;13.354;2022-09-09T06:25:07;10.13;;;6.63;;
5026;SDS011;2532;52.480;13.354;2022-09-09T06:27:36;12.90;;;7.20;;
5026;SDS011;2532;52.480;13.354;2022-09-09T06:30:03;20.87;;;6.83;;
5026;SDS011;2532;52.480;13.354;2022-09-09T06:32:30;13.63;;;7.00;;
5026;SDS011;2532;52.480;13.354;2022-09-09T06:34:59;12.47;;;6.43;;
5026;SDS011;2532;52.480;13.354;2022-09-09T06:37:27;11.80;;;6.03;;
5026;SDS011;2532;52.480;13.354;2022-09-09T06:39:54;17.50;;;6.30;;
5026;SDS011;2532;52.480;13.354;2022-09-09T06:42:21;11.83;;;7.20;;
5026;SDS011;2532;52.480;13.354;2022-09-09T06:44:49;12.70;;;7.10;;
5026;SDS011;2532;52.480;13.354;2022-09-09T06:47:17;10.10;;;6.30;;
5026;SDS011;2532;52.480;13.354;2022-09-09T06:49:44;7.90;;;6.10;;
5026;SDS011;2532;52.480;13.354;2022-09-09T06:52:10;11.10;;;7.07;;
5026;SDS011;2532;52.480;13.354;2022-09-09T06:54:38;11.63;;;7.10;;
5026;SDS011;2532;52.480;13.354;2022-09-09T06:57:10;10.90;;;6.70;;
5026;SDS011;2532;52.480;13.354;2022-09-09T07:00:03;13.50;;;6.70;;
5026;SDS011;2532;52.480;13.354;2022-09-09T07:02:30;8.23;;;6.20;;
5026;SDS011;2532;52.480;13.354;2022-09-09T07:04:57;7.90;;;5.07;;
5026;SDS011;2532;52.480;13.354;2022-09-09T07:07:24;7.43;;;6.00;;
5026;SDS011;2532;52.480;13.354;2022-09-09T07:09:52;10.17;;;5.47;;
5026;SDS011;2532;52.480;13.354;2022-09-09T07:12:18;8.57;;;5.47;;
5026;SDS011;2532;52.480;13.354;2022-09-09T07:14:45;8.50;;;4.63;;
5026;SDS011;2532;52.480;13.354;2022-09-09T07:17:13;7.63;;;4.77;;
5026;SDS011;2532;52.480;13.354;2022-09-09T07:19:40;10.80;;;5.90;;
5026;SDS011;2532;52.480;13.354;2022-09-09T07:22:08;9.67;;;5.47;;
5026;SDS011;2532;52.480;13.354;2022-09-09T07:24:35;8.30;;;5.50;;
5026;SDS011;2532;52.480;13.354;2022-09-09T07:27:02;8.93;;;4.80;;
5026;SDS011;2532;52.480;13.354;2022-09-09T07:29:30;9.17;;;5.80;;
5026;SDS011;2532;52.480;13.354;2022-09-09T07:31:57;6.37;;;5.30;;
5026;SDS011;2532;52.480;13.354;2022-09-09T07:34:25;11.53;;;5.20;;
5026;SDS011;2532;52.480;13.354;2022-09-09T07:36:52;10.73;;;4.73;;
5026;SDS011;2532;52.480;13.354;2022-09-09T07:39:19;8.93;;;4.20;;
5026;SDS011;2532;52.480;13.354;2022-09-09T07:41:46;13.80;;;5.30;;
5026;SDS011;2532;52.480;13.354;2022-09-09T07:44:15;7.00;;;4.33;;
5026;SDS011;2532;52.480;13.354;2022-09-09T07:46:43;7.57;;;5.17;;
5026;SDS011;2532;52.480;13.354;2022-09-09T07:49:13;8.13;;;4.80;;
5026;SDS011;2532;52.480;13.354;2022-09-09T07:51:44;5.50;;;3.67;;
5026;SDS011;2532;52.480;13.354;2022-09-09T07:54:15;7.77;;;4.03;;
5026;SDS011;2532;52.480;13.354;2022-09-09T07:56:45;6.37;;;4.57;;
5026;SDS011;2532;52.480;13.354;2022-09-09T07:59:13;5.67;;;3.87;;
5026;SDS011;2532;52.480;13.354;2022-09-09T08:01:40;7.87;;;4.10;;
5026;SDS011;2532;52.480;13.354;2022-09-09T08:04:10;8.53;;;4.43;;
5026;SDS011;2532;52.480;13.354;2022-09-09T08:06:40;6.37;;;4.23;;
5026;SDS011;2532;52.480;13.354;2022-09-09T08:09:10;7.43;;;4.13;;
5026;SDS011;2532;52.480;13.354;2022-09-09T08:11:38;6.47;;;3.00;;
5026;SDS011;2532;52.480;13.354;2022-09-09T08:14:05;9.00;;;3.80;;
5026;SDS011;2532;52.480;13.354;2022-09-09T08:16:35;6.53;;;4.40;;
5026;SDS011;2532;52.480;13.354;2022-09-09T08:19:03;4.00;;;3.20;;
5026;SDS011;2532;52.480;13.354;2022-09-09T08:21:30;6.70;;;4.40;;
5026;SDS011;2532;52.480;13.354;2022-09-09T08:23:59;9.10;;;3.83;;
5026;SDS011;2532;52.480;13.354;2022-09-09T08:26:29;5.30;;;3.37;;
5026;SDS011;2532;52.480;13.354;2022-09-09T08:28:57;5.73;;;3.90;;
5026;SDS011;2532;52.480;13.354;2022-09-09T08:31:26;8.57;;;4.20;;
5026;SDS011;2532;52.480;13.354;2022-09-09T08:33:54;14.10;;;4.70;;
5026;SDS011;2532;52.480;13.354;2022-09-09T08:36:22;10.73;;;3.90;;
5026;SDS011;2532;52.480;13.354;2022-09-09T08:38:51;5.70;;;3.87;;
5026;SDS011;2532;52.480;13.354;2022-09-09T08:41:25;8.43;;;3.77;;
5026;SDS011;2532;52.480;13.354;2022-09-09T08:44:13;5.77;;;3.80;;
5026;SDS011;2532;52.480;13.354;2022-09-09T08:46:48;9.77;;;3.53;;
5026;SDS011;2532;52.480;13.354;2022-09-09T08:49:31;8.03;;;3.53;;
5026;SDS011;2532;52.480;13.354;2022-09-09T08:52:15;5.57;;;3.37;;
5026;SDS011;2532;52.480;13.354;2022-09-09T08:54:45;9.53;;;4.93;;
5026;SDS011;2532;52.480;13.354;2022-09-09T08:57:17;5.63;;;4.33;;
5026;SDS011;2532;52.480;13.354;2022-09-09T08:59:48;7.00;;;4.13;;
5026;SDS011;2532;52.480;13.354;2022-09-09T09:02:17;6.03;;;3.37;;
5026;SDS011;2532;52.480;13.354;2022-09-09T09:05:00;7.27;;;4.47;;
5026;SDS011;2532;52.480;13.354;2022-09-09T09:07:38;7.33;;;3.73;;
5026;SDS011;2532;52.480;13.354;2022-09-09T09:10:14;10.83;;;4.33;;
5026;SDS011;2532;52.480;13.354;2022-09-09T09:12:53;7.00;;;4.10;;
5026;SDS011;2532;52.480;13.354;2022-09-09T09:15:20;8.93;;;4.20;;
5026;SDS011;2532;52.480;13.354;2022-09-09T09:17:50;6.27;;;3.93;;
5026;SDS011;2532;52.480;13.354;2022-09-09T09:20:18;6.50;;;4.00;;
5026;SDS011;2532;52.480;13.354;2022-09-09T09:22:49;6.57;;;4.17;;
5026;SDS011;2532;52.480;13.354;2022-09-09T09:25:18;7.60;;;4.47;;
5026;SDS011;2532;52.480;13.354;2022-09-09T09:27:49;7.20;;;3.60;;
5026;SDS011;2532;52.480;13.354;2022-09-09T09:30:26;6.03;;;3.37;;
5026;SDS011;2532;52.480;13.354;2022-09-09T09:32:57;5.77;;;4.20;;
5026;SDS011;2532;52.480;13.354;2022-09-09T09:35:27;6.67;;;5.40;;
5026;SDS011;2532;52.480;13.354;2022-09-09T09:37:54;7.80;;;4.43;;
5026;SDS011;2532;52.480;13.354;2022-09-09T09:40:21;4.37;;;3.77;;
5026;SDS011;2532;52.480;13.354;2022-09-09T09:42:49;4.43;;;3.13;;
5026;SDS011;2532;52.480;13.354;2022-09-09T09:45:24;7.90;;;4.57;;
5026;SDS011;2532;52.480;13.354;2022-09-09T09:47:58;8.33;;;3.80;;
5026;SDS011;2532;52.480;13.354;2022-09-09T09:50:27;6.03;;;3.40;;
5026;SDS011;2532;52.480;13.354;2022-09-09T09:52:54;6.27;;;3.80;;
5026;SDS011;2532;52.480;13.354;2022-09-09T09:55:22;9.60;;;3.83;;
5026;SDS011;2532;52.480;13.354;2022-09-09T09:57:50;9.30;;;4.50;;
5026;SDS011;2532;52.480;13.354;2022-09-09T10:00:18;8.83;;;3.57;;
5026;SDS011;2532;52.480;13.354;2022-09-09T10:02:48;7.80;;;3.60;;
5026;SDS011;2532;52.480;13.354;2022-09-09T10:05:18;6.87;;;3.63;;
5026;SDS011;2532;52.480;13.354;2022-09-09T10:07:59;10.90;;;4.23;;
5026;SDS011;2532;52.480;13.354;2022-09-09T10:10:36;9.97;;;3.87;;
5026;SDS011;2532;52.480;13.354;2022-09-09T10:13:15;7.43;;;3.97;;
5026;SDS011;2532;52.480;13.354;2022-09-09T10:15:47;4.17;;;3.00;;
5026;SDS011;2532;52.480;13.354;2022-09-09T10:18:38;5.30;;;2.97;;
5026;SDS011;2532;52.480;13.354;2022-09-09T10:21:17;4.80;;;3.17;;
5026;SDS011;2532;52.480;13.354;2022-09-09T10:24:02;10.80;;;3.40;;
5026;SDS011;2532;52.480;13.354;2022-09-09T10:26:40;4.40;;;3.23;;
5026;SDS011;2532;52.480;13.354;2022-09-09T10:29:19;7.13;;;3.37;;
5026;SDS011;2532;52.480;13.354;2022-09-09T10:32:00;9.57;;;3.73;;
5026;SDS011;2532;52.480;13.354;2022-09-09T10:34:49;4.10;;;2.70;;
5026;SDS011;2532;52.480;13.354;2022-09-09T10:37:26;6.37;;;3.60;;
5026;SDS011;2532;52.480;13.354;2022-09-09T10:40:16;6.63;;;3.97;;
5026;SDS011;2532;52.480;13.354;2022-09-09T10:43:01;8.40;;;4.13;;
5026;SDS011;2532;52.480;13.354;2022-09-09T10:45:39;9.43;;;4.50;;
5026;SDS011;2532;52.480;13.354;2022-09-09T10:48:24;6.10;;;4.00;;
5026;SDS011;2532;52.480;13.354;2022-09-09T10:51:02;5.53;;;3.50;;
5026;SDS011;2532;52.480;13.354;2022-09-09T10:53:43;7.20;;;3.40;;
5026;SDS011;2532;52.480;13.354;2022-09-09T10:56:18;8.30;;;2.97;;
5026;SDS011;2532;52.480;13.354;2022-09-09T10:58:49;5.97;;;3.37;;
5026;SDS011;2532;52.480;13.354;2022-09-09T11:01:20;6.20;;;4.23;;
5026;SDS011;2532;52.480;13.354;2022-09-09T11:03:52;3.80;;;3.00;;
5026;SDS011;2532;52.480;13.354;2022-09-09T11:06:28;30.87;;;17.17;;
5026;SDS011;2532;52.480;13.354;2022-09-09T11:08:58;43.90;;;25.60;;
5026;SDS011;2532;52.480;13.354;2022-09-09T11:11:29;6.03;;;3.87;;
5026;SDS011;2532;52.480;13.354;2022-09-09T11:14:01;6.73;;;3.77;;
5026;SDS011;2532;52.480;13.354;2022-09-09T11:16:36;10.90;;;3.87;;
5026;SDS011;2532;52.480;13.354;2022-09-09T11:19:10;5.30;;;3.67;;
5026;SDS011;2532;52.480;13.354;2022-09-09T11:21:43;7.07;;;3.80;;
5026;SDS011;2532;52.480;13.354;2022-09-09T11:24:13;6.67;;;4.57;;
5026;SDS011;2532;52.480;13.354;2022-09-09T11:26:48;5.80;;;3.43;;
5026;SDS011;2532;52.480;13.354;2022-09-09T11:32:22;6.60;;;3.73;;
5026;SDS011;2532;52.480;13.354;2022-09-09T11:35:16;7.00;;;4.03;;
5026;SDS011;2532;52.480;13.354;2022-09-09T11:38:01;4.83;;;3.60;;
5026;SDS011;2532;52.480;13.354;2022-09-09T11:40:40;6.13;;;4.17;;
5026;SDS011;2532;52.480;13.354;2022-09-09T11:43:09;5.97;;;3.60;;
5026;SDS011;2532;52.480;13.354;2022-09-09T11:45:39;5.77;;;4.10;;
5026;SDS011;2532;52.480;13.354;2022-09-09T11:48:21;6.10;;;2.50;;
5026;SDS011;2532;52.480;13.354;2022-09-09T11:50:57;3.70;;;2.60;;
5026;SDS011;2532;52.480;13.354;2022-09-09T11:53:26;4.35;;;2.30;;
5026;SDS011;2532;52.480;13.354;2022-09-09T11:56:00;3.00;;;2.20;;
5026;SDS011;2532;52.480;13.354;2022-09-09T11:58:34;4.67;;;2.73;;
5026;SDS011;2532;52.480;13.354;2022-09-09T12:01:15;3.20;;;2.37;;
5026;SDS011;2532;52.480;13.354;2022-09-09T12:03:54;3.60;;;2.57;;
5026;SDS011;2532;52.480;13.354;2022-09-09T12:06:31;4.00;;;2.43;;
5026;SDS011;2532;52.480;13.354;2022-09-09T12:09:06;4.37;;;2.87;;
5026;SDS011;2532;52.480;13.354;2022-09-09T12:11:36;3.53;;;2.50;;
5026;SDS011;2532;52.480;13.354;2022-09-09T12:14:03;10.37;;;4.10;;
5026;SDS011;2532;52.480;13.354;2022-09-09T12:16:31;7.80;;;4.33;;
5026;SDS011;2532;52.480;13.354;2022-09-09T12:19:03;3.27;;;2.97;;
5026;SDS011;2532;52.480;13.354;2022-09-09T12:21:33;3.47;;;2.50;;
5026;SDS011;2532;52.480;13.354;2022-09-09T12:24:07;3.23;;;2.10;;
5026;SDS011;2532;52.480;13.354;2022-09-09T12:26:36;3.17;;;2.30;;
5026;SDS011;2532;52.480;13.354;2022-09-09T12:29:20;5.00;;;2.20;;
5026;SDS011;2532;52.480;13.354;2022-09-09T12:31:54;6.53;;;2.70;;
5026;SDS011;2532;52.480;13.354;2022-09-09T12:34:30;6.73;;;3.43;;
5026;SDS011;2532;52.480;13.354;2022-09-09T12:37:03;5.67;;;2.30;;
5026;SDS011;2532;52.480;13.354;2022-09-09T12:39:37;4.23;;;2.10;;
5026;SDS011;2532;52.480;13.354;2022-09-09T12:42:15;3.10;;;2.43;;
5026;SDS011;2532;52.480;13.354;2022-09-09T12:44:50;6.87;;;3.50;;
5026;SDS011;2532;52.480;13.354;2022-09-09T12:47:21;4.17;;;2.30;;
5026;SDS011;2532;52.480;13.354;2022-09-09T12:49:52;4.07;;;2.70;;
5026;SDS011;2532;52.480;13.354;2022-09-09T12:52:23;3.80;;;2.10;;
5026;SDS011;2532;52.480;13.354;2022-09-09T12:54:56;4.80;;;2.57;;
5026;SDS011;2532;52.480;13.354;2022-09-09T12:57:24;4.17;;;2.53;;
5026;SDS011;2532;52.480;13.354;2022-09-09T12:59:52;3.37;;;2.37;;
5026;SDS011;2532;52.480;13.354;2022-09-09T13:02:45;9.13;;;2.93;;
5026;SDS011;2532;52.480;13.354;2022-09-09T13:05:18;8.43;;;3.17;;
5026;SDS011;2532;52.480;13.354;2022-09-09T13:07:46;5.37;;;2.33;;
5026;SDS011;2532;52.480;13.354;2022-09-09T13:10:15;5.93;;;2.60;;
5026;SDS011;2532;52.480;13.354;2022-09-09T13:12:49;6.70;;;2.70;;
5026;SDS011;2532;52.480;13.354;2022-09-09T13:15:18;6.60;;;2.40;;
5026;SDS011;2532;52.480;13.354;2022-09-09T13:17:54;3.17;;;2.37;;
5026;SDS011;2532;52.480;13.354;2022-09-09T13:20:22;4.80;;;2.50;;
5026;SDS011;2532;52.480;13.354;2022-09-09T13:22:51;4.63;;;2.37;;
5026;SDS011;2532;52.480;13.354;2022-09-09T13:25:22;5.93;;;3.00;;
5026;SDS011;2532;52.480;13.354;2022-09-09T13:27:52;4.20;;;2.47;;
5026;SDS011;2532;52.480;13.354;2022-09-09T13:30:21;3.13;;;2.33;;
5026;SDS011;2532;52.480;13.354;2022-09-09T13:33:01;4.03;;;2.70;;
5026;SDS011;2532;52.480;13.354;2022-09-09T13:35:30;5.57;;;3.07;;
5026;SDS011;2532;52.480;13.354;2022-09-09T13:37:57;2.90;;;2.07;;
5026;SDS011;2532;52.480;13.354;2022-09-09T13:40:27;2.57;;;2.20;;
5026;SDS011;2532;52.480;13.354;2022-09-09T13:42:55;9.33;;;2.43;;
5026;SDS011;2532;52.480;13.354;2022-09-09T13:45:24;6.07;;;3.27;;
5026;SDS011;2532;52.480;13.354;2022-09-09T13:47:52;5.77;;;2.43;;
5026;SDS011;2532;52.480;13.354;2022-09-09T13:50:20;3.70;;;2.53;;
5026;SDS011;2532;52.480;13.354;2022-09-09T13:52:49;3.00;;;2.60;;
5026;SDS011;2532;52.480;13.354;2022-09-09T13:55:18;7.43;;;2.60;;
5026;SDS011;2532;52.480;13.354;2022-09-09T13:57:51;4.90;;;2.40;;
5026;SDS011;2532;52.480;13.354;2022-09-09T14:00:19;3.47;;;1.93;;
5026;SDS011;2532;52.480;13.354;2022-09-09T14:02:46;8.73;;;3.23;;
5026;SDS011;2532;52.480;13.354;2022-09-09T14:05:14;5.40;;;2.40;;
5026;SDS011;2532;52.480;13.354;2022-09-09T14:07:41;5.10;;;2.67;;
5026;SDS011;2532;52.480;13.354;2022-09-09T14:10:08;5.60;;;2.67;;
5026;SDS011;2532;52.480;13.354;2022-09-09T14:12:36;5.83;;;2.93;;
5026;SDS011;2532;52.480;13.354;2022-09-09T14:15:05;7.10;;;2.40;;
5026;SDS011;2532;52.480;13.354;2022-09-09T14:17:33;2.40;;;2.20;;
5026;SDS011;2532;52.480;13.354;2022-09-09T14:20:01;6.37;;;2.50;;
5026;SDS011;2532;52.480;13.354;2022-09-09T14:22:28;4.30;;;2.43;;
5026;SDS011;2532;52.480;13.354;2022-09-09T14:24:55;2.53;;;2.07;;
5026;SDS011;2532;52.480;13.354;2022-09-09T14:27:23;5.17;;;2.63;;
5026;SDS011;2532;52.480;13.354;2022-09-09T14:29:50;3.20;;;2.00;;
5026;SDS011;2532;52.480;13.354;2022-09-09T14:32:19;4.00;;;2.13;;
5026;SDS011;2532;52.480;13.354;2022-09-09T14:34:46;4.87;;;2.37;;
5026;SDS011;2532;52.480;13.354;2022-09-09T14:37:14;4.73;;;2.20;;
5026;SDS011;2532;52.480;13.354;2022-09-09T14:39:41;5.30;;;2.57;;
5026;SDS011;2532;52.480;13.354;2022-09-09T14:42:09;4.33;;;2.20;;
5026;SDS011;2532;52.480;13.354;2022-09-09T14:44:37;3.90;;;2.07;;
5026;SDS011;2532;52.480;13.354;2022-09-09T14:47:04;3.40;;;2.40;;
5026;SDS011;2532;52.480;13.354;2022-09-09T14:49:32;3.20;;;2.20;;
5026;SDS011;2532;52.480;13.354;2022-09-09T14:51:59;3.83;;;2.40;;
5026;SDS011;2532;52.480;13.354;2022-09-09T14:54:27;7.07;;;2.30;;
5026;SDS011;2532;52.480;13.354;2022-09-09T14:56:54;5.60;;;2.73;;
5026;SDS011;2532;52.480;13.354;2022-09-09T14:59:22;4.80;;;2.90;;
5026;SDS011;2532;52.480;13.354;2022-09-09T15:01:49;5.47;;;2.63;;
5026;SDS011;2532;52.480;13.354;2022-09-09T15:04:15;4.03;;;2.33;;
5026;SDS011;2532;52.480;13.354;2022-09-09T15:06:44;4.67;;;2.73;;
5026;SDS011;2532;52.480;13.354;2022-09-09T15:09:13;5.40;;;2.60;;
5026;SDS011;2532;52.480;13.354;2022-09-09T15:11:40;4.27;;;2.50;;
5026;SDS011;2532;52.480;13.354;2022-09-09T15:14:08;3.50;;;2.50;;
5026;SDS011;2532;52.480;13.354;2022-09-09T15:16:37;3.80;;;2.13;;
5026;SDS011;2532;52.480;13.354;2022-09-09T15:19:05;3.37;;;2.43;;
5026;SDS011;2532;52.480;13.354;2022-09-09T15:21:33;7.80;;;4.03;;
5026;SDS011;2532;52.480;13.354;2022-09-09T15:24:02;4.57;;;2.90;;
5026;SDS011;2532;52.480;13.354;2022-09-09T15:26:30;8.00;;;3.30;;
5026;SDS011;2532;52.480;13.354;2022-09-09T15:28:57;4.37;;;2.33;;
5026;SDS011;2532;52.480;13.354;2022-09-09T15:31:26;5.10;;;2.90;;